createdAt,value
2022-08-25T00:01:30.434Z,36.62
2022-08-25T00:04:00.346Z,36.32
2022-08-25T00:06:28.327Z,36.32
2022-08-25T00:08:59.404Z,36.43
2022-08-25T00:11:29.528Z,36.63
2022-08-25T00:13:59.371Z,36.63
2022-08-25T00:16:26.496Z,36.15
2022-08-25T00:18:56.749Z,36.59
2022-08-25T00:21:24.281Z,36.22
2022-08-25T00:23:51.112Z,36.41
2022-08-25T00:26:18.551Z,36.35
2022-08-25T00:28:45.315Z,36.40
2022-08-25T00:31:17.278Z,36.33
2022-08-25T00:33:45.297Z,36.36
2022-08-25T00:36:12.501Z,36.38
2022-08-25T00:38:40.663Z,36.25
2022-08-25T00:41:10.027Z,36.08
2022-08-25T00:43:45.945Z,36.51
2022-08-25T00:46:15.625Z,36.02
2022-08-25T00:48:44.644Z,36.25
2022-08-25T00:51:14.865Z,36.03
2022-08-25T00:53:42.059Z,36.10
2022-08-25T00:56:08.631Z,36.50
2022-08-25T00:58:37.191Z,36.28
2022-08-25T01:01:04.090Z,35.91
2022-08-25T01:03:35.913Z,35.88
2022-08-25T01:06:04.277Z,36.39
2022-08-25T01:08:32.639Z,36.15
2022-08-25T01:11:03.659Z,35.85
2022-08-25T01:13:41.284Z,36.36
2022-08-25T01:16:08.058Z,35.99
2022-08-25T01:18:43.616Z,35.94
2022-08-25T01:21:10.213Z,35.85
2022-08-25T01:23:37.173Z,36.38
2022-08-25T01:26:26.145Z,36.15
2022-08-25T01:29:17.942Z,36.27
2022-08-25T01:31:45.177Z,35.94
2022-08-25T01:34:12.960Z,36.24
2022-08-25T01:36:40.962Z,36.05
2022-08-25T01:39:07.471Z,35.79
2022-08-25T01:41:33.889Z,36.06
2022-08-25T01:44:03.118Z,35.75
2022-08-25T01:46:29.610Z,36.16
2022-08-25T01:48:56.075Z,35.61
2022-08-25T01:51:25.482Z,35.81
2022-08-25T01:53:51.910Z,35.74
2022-08-25T01:56:18.483Z,35.84
2022-08-25T01:58:49.623Z,35.59
2022-08-25T02:01:24.393Z,35.83
2022-08-25T02:03:53.466Z,35.62
2022-08-25T02:06:34.456Z,35.66
2022-08-25T02:09:11.008Z,35.82
2022-08-25T02:11:40.520Z,35.98
2022-08-25T02:14:07.925Z,35.61
2022-08-25T02:16:37.066Z,35.65
2022-08-25T02:19:07.632Z,36.04
2022-08-25T02:21:35.321Z,35.58
2022-08-25T02:24:02.958Z,35.76
2022-08-25T02:26:30.182Z,35.83
2022-08-25T02:28:56.732Z,35.48
2022-08-25T02:31:25.334Z,35.66
2022-08-25T02:33:53.266Z,35.38
2022-08-25T02:36:20.267Z,35.51
2022-08-25T02:38:47.108Z,35.77
2022-08-25T02:41:20.170Z,35.48
2022-08-25T02:43:48.598Z,35.91
2022-08-25T02:46:17.129Z,35.58
2022-08-25T02:48:43.640Z,35.46
2022-08-25T02:51:10.675Z,35.59
2022-08-25T02:53:40.411Z,35.44
2022-08-25T02:56:09.753Z,35.79
2022-08-25T02:58:38.488Z,35.35
2022-08-25T03:01:05.909Z,35.44
2022-08-25T03:03:37.538Z,35.51
2022-08-25T03:06:10.791Z,35.57
2022-08-25T03:08:37.746Z,35.72
2022-08-25T03:11:05.559Z,35.31
2022-08-25T03:13:32.408Z,35.75
2022-08-25T03:16:00.409Z,35.69
2022-08-25T03:18:27.624Z,35.32
2022-08-25T03:20:55.083Z,35.30
2022-08-25T03:23:21.822Z,35.41
2022-08-25T03:26:07.027Z,35.49
2022-08-25T03:28:33.931Z,35.53
2022-08-25T03:31:01.348Z,35.43
2022-08-25T03:33:29.419Z,35.50
2022-08-25T03:35:56.414Z,35.42
2022-08-25T03:38:25.317Z,35.29
2022-08-25T03:40:52.368Z,35.47
2022-08-25T03:43:19.313Z,35.50
2022-08-25T03:45:47.702Z,35.56
2022-08-25T03:48:14.850Z,35.36
2022-08-25T03:50:51.933Z,35.81
2022-08-25T03:53:19.781Z,35.39
2022-08-25T03:55:47.287Z,35.83
2022-08-25T03:58:14.318Z,35.34
2022-08-25T04:00:40.876Z,35.46
2022-08-25T04:03:07.587Z,35.53
2022-08-25T04:05:34.237Z,35.65
2022-08-25T04:08:01.975Z,35.64
2022-08-25T04:10:29.139Z,35.40
2022-08-25T04:12:56.149Z,35.60
2022-08-25T04:15:22.896Z,35.24
2022-08-25T04:17:51.919Z,35.36
2022-08-25T04:20:20.501Z,34.96
2022-08-25T04:22:47.070Z,35.02
2022-08-25T04:25:13.898Z,35.34
2022-08-25T04:27:40.792Z,35.04
2022-08-25T04:30:07.747Z,35.12
2022-08-25T04:32:36.308Z,35.49
2022-08-25T04:35:04.372Z,34.76
2022-08-25T04:37:31.068Z,35.23
2022-08-25T04:39:59.994Z,35.28
2022-08-25T04:42:26.979Z,35.12
2022-08-25T04:44:54.371Z,35.11
2022-08-25T04:47:21.145Z,34.95
2022-08-25T04:49:47.854Z,35.05
2022-08-25T04:52:14.795Z,34.78
2022-08-25T04:54:42.099Z,35.55
2022-08-25T04:57:08.551Z,35.30
2022-08-25T04:59:35.001Z,35.21
2022-08-25T05:02:03.283Z,34.92
2022-08-25T05:04:31.230Z,35.07
2022-08-25T05:06:58.375Z,35.45
2022-08-25T05:09:26.153Z,35.86
2022-08-25T05:11:53.862Z,36.35
2022-08-25T05:14:25.676Z,36.54
2022-08-25T05:16:54.196Z,36.84
2022-08-25T05:19:20.754Z,37.10
2022-08-25T05:21:47.879Z,37.36
2022-08-25T05:24:14.407Z,37.25
2022-08-25T05:26:40.970Z,37.25
2022-08-25T05:29:07.822Z,37.52
2022-08-25T05:31:38.459Z,37.13
2022-08-25T05:34:08.715Z,37.40
2022-08-25T05:36:35.570Z,37.18
2022-08-25T05:39:02.285Z,37.06
2022-08-25T05:41:30.351Z,37.26
2022-08-25T05:43:57.214Z,37.05
2022-08-25T05:46:24.754Z,37.14
2022-08-25T05:48:51.844Z,37.15
2022-08-25T05:51:18.935Z,37.20
2022-08-25T05:53:47.902Z,37.29
2022-08-25T05:56:14.743Z,37.06
2022-08-25T05:58:42.421Z,36.94
2022-08-25T06:01:28.749Z,36.79
2022-08-25T06:03:55.323Z,36.79
2022-08-25T06:06:23.227Z,37.05
2022-08-25T06:08:50.026Z,36.76
2022-08-25T06:11:17.079Z,36.76
2022-08-25T06:13:43.755Z,36.93
2022-08-25T06:16:10.452Z,36.93
2022-08-25T06:18:37.101Z,36.95
2022-08-25T06:21:14.695Z,36.98
2022-08-25T06:23:41.825Z,36.64
2022-08-25T06:26:19.072Z,36.93
2022-08-25T06:28:48.362Z,36.92
2022-08-25T06:31:15.143Z,37.24
2022-08-25T06:33:41.667Z,37.39
2022-08-25T06:36:08.755Z,37.30
2022-08-25T06:38:35.981Z,37.67
2022-08-25T06:41:07.390Z,37.62
2022-08-25T06:43:34.605Z,37.54
2022-08-25T06:46:10.396Z,37.46
2022-08-25T06:48:37.362Z,37.67
2022-08-25T06:51:14.136Z,37.47
2022-08-25T06:53:42.484Z,37.50
2022-08-25T06:56:10.042Z,37.65
2022-08-25T06:58:37.154Z,37.80
2022-08-25T07:01:26.208Z,37.95
2022-08-25T07:03:57.827Z,37.96
2022-08-25T07:06:26.023Z,38.04
2022-08-25T07:08:53.445Z,38.04
2022-08-25T07:11:22.729Z,38.12
2022-08-25T07:13:50.441Z,38.35
2022-08-25T07:16:18.706Z,38.10
2022-08-25T07:18:45.452Z,38.29
2022-08-25T07:21:13.918Z,38.38
2022-08-25T07:23:41.961Z,38.73
2022-08-25T07:26:33.644Z,38.44
2022-08-25T07:28:58.803Z,38.60
2022-08-25T07:31:27.088Z,38.30
2022-08-25T07:34:14.780Z,38.28
2022-08-25T07:36:43.310Z,38.58
2022-08-25T07:39:10.139Z,38.39
2022-08-25T07:41:39.525Z,38.29
2022-08-25T07:44:06.782Z,38.31
2022-08-25T07:46:34.104Z,38.59
2022-08-25T07:49:00.616Z,38.07
2022-08-25T07:53:58.531Z,38.08
2022-08-25T07:56:27.781Z,38.40
2022-08-25T07:58:54.256Z,38.18
2022-08-25T08:01:23.284Z,37.97
2022-08-25T08:03:51.637Z,38.20
2022-08-25T08:06:22.423Z,38.53
2022-08-25T08:08:54.732Z,38.03
2022-08-25T08:11:30.186Z,37.87
2022-08-25T08:13:58.221Z,38.06
2022-08-25T08:16:30.018Z,37.80
2022-08-25T08:18:58.413Z,37.69
2022-08-25T08:21:30.928Z,37.91
2022-08-25T08:23:59.121Z,37.86
2022-08-25T08:26:36.266Z,37.65
2022-08-25T08:29:08.450Z,37.75
2022-08-25T08:31:36.539Z,37.50
2022-08-25T08:34:03.659Z,37.75
2022-08-25T08:36:30.107Z,37.83
2022-08-25T08:38:56.525Z,37.65
2022-08-25T08:44:46.940Z,37.51
2022-08-25T08:47:38.050Z,37.06
2022-08-25T08:50:23.078Z,37.06
2022-08-25T08:53:34.127Z,36.95
2022-08-25T08:56:14.918Z,37.14
2022-08-25T08:58:49.834Z,37.06
2022-08-25T09:01:26.672Z,36.94
2022-08-25T09:04:08.483Z,36.83
2022-08-25T09:06:41.129Z,37.19
2022-08-25T09:09:11.521Z,36.73
2022-08-25T09:11:57.216Z,37.18
2022-08-25T09:14:45.930Z,36.70
2022-08-25T09:17:38.490Z,36.65
2022-08-25T09:20:29.784Z,36.87
2022-08-25T09:23:14.811Z,36.73
2022-08-25T09:25:55.231Z,36.88
2022-08-25T09:28:40.808Z,36.91
2022-08-25T09:31:29.196Z,36.53
2022-08-25T09:34:00.007Z,36.68
2022-08-25T09:36:26.997Z,36.71
2022-08-25T09:38:53.569Z,36.17
2022-08-25T09:41:44.554Z,36.61
2022-08-25T09:44:42.287Z,36.20
2022-08-25T09:47:17.493Z,35.96
2022-08-25T09:49:50.612Z,36.17
2022-08-25T09:52:26.299Z,35.92
2022-08-25T09:54:56.937Z,36.04
2022-08-25T09:57:45.353Z,36.16
2022-08-25T10:00:13.744Z,35.82
2022-08-25T10:02:42.658Z,35.75
2022-08-25T10:05:35.138Z,36.11
2022-08-25T10:08:10.063Z,35.79
2022-08-25T10:10:46.172Z,36.21
2022-08-25T10:13:22.841Z,35.62
2022-08-25T10:16:04.795Z,35.99
2022-08-25T10:19:11.125Z,35.44
2022-08-25T10:21:40.795Z,35.30
2022-08-25T10:24:10.036Z,35.39
2022-08-25T10:26:47.653Z,35.43
2022-08-25T10:29:27.133Z,35.58
2022-08-25T10:32:12.043Z,35.27
2022-08-25T10:34:46.035Z,35.79
2022-08-25T10:37:40.476Z,35.54
2022-08-25T10:40:29.974Z,35.43
2022-08-25T10:43:23.801Z,35.04
2022-08-25T10:46:01.644Z,35.29
2022-08-25T10:48:47.762Z,35.41
2022-08-25T10:51:40.060Z,34.98
2022-08-25T10:54:31.841Z,35.28
2022-08-25T10:57:17.265Z,34.71
2022-08-25T11:00:00.467Z,34.87
2022-08-25T11:02:52.174Z,34.85
2022-08-25T11:05:33.120Z,35.22
2022-08-25T11:08:10.703Z,34.93
2022-08-25T11:10:44.438Z,34.71
2022-08-25T11:13:30.844Z,34.61
2022-08-25T11:16:19.857Z,34.59
2022-08-25T11:19:34.671Z,34.67
2022-08-25T11:22:26.051Z,35.02
2022-08-25T11:25:20.010Z,34.72
2022-08-25T11:28:06.546Z,34.57
2022-08-25T11:30:33.701Z,34.58
2022-08-25T11:33:00.518Z,34.88
2022-08-25T11:35:34.322Z,34.57
2022-08-25T11:38:31.309Z,34.71
2022-08-25T11:41:12.979Z,34.81
2022-08-25T11:44:04.512Z,34.37
2022-08-25T11:46:31.925Z,34.89
2022-08-25T11:49:32.106Z,34.85
2022-08-25T11:52:02.729Z,34.32
2022-08-25T11:54:36.775Z,34.63
2022-08-25T11:57:07.683Z,34.83
2022-08-25T11:59:52.342Z,34.41
2022-08-25T12:02:34.230Z,34.67
2022-08-25T12:05:01.394Z,34.59
2022-08-25T12:07:49.934Z,34.62
2022-08-25T12:10:20.936Z,34.33
2022-08-25T12:12:48.950Z,34.69
2022-08-25T12:15:32.145Z,34.13
2022-08-25T12:18:11.477Z,34.26
2022-08-25T12:20:53.201Z,34.68
2022-08-25T12:24:06.405Z,33.95
2022-08-25T12:26:50.413Z,34.48
2022-08-25T12:29:31.904Z,34.14
2022-08-25T12:32:02.423Z,34.05
2022-08-25T12:34:31.429Z,33.91
2022-08-25T12:37:06.173Z,34.30
2022-08-25T12:39:42.849Z,34.38
2022-08-25T12:42:35.993Z,34.34
2022-08-25T12:45:20.183Z,34.01
2022-08-25T12:47:48.708Z,33.96
2022-08-25T12:50:33.378Z,34.35
2022-08-25T12:53:14.179Z,33.71
2022-08-25T12:55:47.207Z,34.16
2022-08-25T12:58:15.198Z,33.94
2022-08-25T13:01:17.434Z,34.41
2022-08-25T13:04:14.479Z,34.28
2022-08-25T13:06:46.652Z,34.38
2022-08-25T13:09:58.629Z,34.20
2022-08-25T13:12:35.089Z,34.40
2022-08-25T13:15:01.567Z,33.95
2022-08-25T13:17:33.770Z,34.21
2022-08-25T13:20:29.175Z,34.17
2022-08-25T13:22:59.367Z,34.17
2022-08-25T13:25:32.327Z,34.01
2022-08-25T13:28:04.798Z,34.11
2022-08-25T13:30:35.378Z,34.03
2022-08-25T13:33:23.796Z,34.10
2022-08-25T13:36:13.164Z,34.20
2022-08-25T13:38:40.302Z,33.79
2022-08-25T13:41:11.007Z,33.76
2022-08-25T13:43:38.897Z,33.89
2022-08-25T13:46:06.229Z,34.27
2022-08-25T13:48:39.427Z,33.76
2022-08-25T13:51:31.340Z,33.86
2022-08-25T13:54:01.124Z,34.07
2022-08-25T13:56:38.409Z,33.47
2022-08-25T13:59:21.372Z,33.99
2022-08-25T14:01:50.053Z,33.57
2022-08-25T14:04:26.008Z,33.49
2022-08-25T14:07:14.153Z,33.70
2022-08-25T14:09:48.114Z,33.87
2022-08-25T14:12:49.866Z,33.96
2022-08-25T14:15:20.065Z,34.02
2022-08-25T14:17:59.552Z,33.91
2022-08-25T14:20:29.676Z,33.86
2022-08-25T14:22:59.520Z,34.08
2022-08-25T14:25:30.334Z,33.52
2022-08-25T14:28:08.262Z,33.80
2022-08-25T14:30:39.757Z,33.69
2022-08-25T14:33:10.524Z,33.89
2022-08-25T14:35:37.951Z,33.82
2022-08-25T14:38:09.948Z,33.95
2022-08-25T14:40:37.074Z,34.03
2022-08-25T14:43:04.069Z,33.42
2022-08-25T14:45:31.373Z,34.08
2022-08-25T14:48:05.345Z,33.50
2022-08-25T14:50:38.133Z,33.57
2022-08-25T14:53:08.325Z,33.69
2022-08-25T14:55:34.961Z,33.64
2022-08-25T14:58:02.018Z,33.51
2022-08-25T15:00:29.022Z,33.31
2022-08-25T15:02:55.675Z,33.38
2022-08-25T15:05:26.948Z,32.87
2022-08-25T15:08:13.817Z,32.68
2022-08-25T15:10:40.660Z,32.64
2022-08-25T15:13:07.182Z,32.95
2022-08-25T15:15:38.111Z,32.91
2022-08-25T15:18:05.501Z,33.07
2022-08-25T15:20:32.732Z,32.57
2022-08-25T15:22:59.673Z,33.05
2022-08-25T15:25:26.652Z,32.73
2022-08-25T15:27:54.141Z,32.75
2022-08-25T15:30:21.099Z,32.16
2022-08-25T15:32:57.563Z,32.55
2022-08-25T15:35:24.399Z,32.62
2022-08-25T15:37:55.697Z,32.50
2022-08-25T15:40:22.340Z,32.52
2022-08-25T15:42:48.891Z,32.50
2022-08-25T15:45:15.512Z,32.42
2022-08-25T15:47:42.099Z,32.90
2022-08-25T15:50:14.463Z,33.29
2022-08-25T15:52:46.485Z,33.41
2022-08-25T15:55:17.074Z,33.28
2022-08-25T15:57:43.803Z,33.57
2022-08-25T16:00:12.193Z,33.44
2022-08-25T16:02:40.417Z,33.55
2022-08-25T16:05:09.081Z,33.74
2022-08-25T16:07:35.892Z,33.65
2022-08-25T16:10:03.962Z,33.63
2022-08-25T16:12:31.638Z,33.83
2022-08-25T16:14:58.290Z,33.78
2022-08-25T16:17:25.060Z,33.45
2022-08-25T16:19:51.555Z,33.56
2022-08-25T16:22:18.105Z,33.51
2022-08-25T16:24:45.064Z,33.69
2022-08-25T16:27:14.044Z,33.93
2022-08-25T16:29:42.742Z,33.56
2022-08-25T16:32:11.491Z,33.73
2022-08-25T16:34:40.664Z,33.88
2022-08-25T16:37:08.403Z,34.29
2022-08-25T16:39:35.790Z,34.39
2022-08-25T16:42:02.263Z,34.82
2022-08-25T16:44:28.899Z,34.49
2022-08-25T16:46:56.478Z,34.69
2022-08-25T16:49:24.344Z,35.62
2022-08-25T16:51:57.075Z,35.55
2022-08-25T16:54:43.768Z,35.08
2022-08-25T16:57:10.833Z,35.39
2022-08-25T16:59:37.351Z,34.76
2022-08-25T17:02:04.114Z,35.12
2022-08-25T17:04:32.277Z,35.42
2022-08-25T17:06:59.771Z,35.00
2022-08-25T17:09:26.279Z,35.25
2022-08-25T17:11:56.647Z,35.30
2022-08-25T17:14:23.624Z,35.23
2022-08-25T17:16:54.574Z,35.64
2022-08-25T17:19:21.275Z,35.12
2022-08-25T17:21:50.174Z,35.09
2022-08-25T17:24:17.144Z,35.58
2022-08-25T17:26:46.274Z,35.15
2022-08-25T17:29:13.016Z,34.67
2022-08-25T17:31:40.296Z,35.09
2022-08-25T17:34:10.583Z,35.52
2022-08-25T17:36:38.444Z,35.13
2022-08-25T17:39:08.800Z,35.18
2022-08-25T17:41:37.769Z,35.15
2022-08-25T17:44:05.614Z,35.68
2022-08-25T17:46:32.539Z,35.52
2022-08-25T17:48:59.331Z,35.63
2022-08-25T17:51:25.840Z,35.96
2022-08-25T17:53:52.806Z,35.96
2022-08-25T17:56:22.188Z,36.08
2022-08-25T17:58:49.277Z,35.87
2022-08-25T18:01:22.755Z,35.57
2022-08-25T18:03:49.402Z,35.84
2022-08-25T18:06:16.566Z,35.38
2022-08-25T18:08:44.450Z,35.53
2022-08-25T18:11:20.125Z,35.86
2022-08-25T18:13:46.992Z,35.46
2022-08-25T18:16:13.614Z,35.18
2022-08-25T18:18:42.191Z,35.46
2022-08-25T18:21:14.347Z,35.49
2022-08-25T18:23:42.428Z,35.62
2022-08-25T18:26:12.806Z,35.65
2022-08-25T18:28:40.053Z,35.62
2022-08-25T18:31:11.975Z,35.31
2022-08-25T18:33:41.959Z,35.35
2022-08-25T18:36:09.547Z,35.75
2022-08-25T18:38:58.276Z,34.96
2022-08-25T18:41:26.338Z,35.26
2022-08-25T18:43:53.481Z,35.05
2022-08-25T18:46:22.693Z,35.08
2022-08-25T18:48:52.969Z,34.94
2022-08-25T18:51:23.024Z,35.32
2022-08-25T18:53:51.020Z,35.17
2022-08-25T18:56:19.155Z,35.06
2022-08-25T18:58:46.978Z,34.95
2022-08-25T19:01:15.030Z,35.04
2022-08-25T19:03:43.056Z,35.33
2022-08-25T19:06:09.854Z,35.69
2022-08-25T19:08:39.414Z,35.61
2022-08-25T19:11:08.604Z,35.92
2022-08-25T19:13:35.230Z,35.60
2022-08-25T19:16:17.817Z,36.04
2022-08-25T19:18:48.974Z,35.98
2022-08-25T19:21:22.848Z,35.71
2022-08-25T19:23:50.540Z,36.01
2022-08-25T19:26:17.998Z,35.58
2022-08-25T19:28:48.582Z,36.04
2022-08-25T19:31:16.431Z,36.09
2022-08-25T19:33:46.023Z,36.43
2022-08-25T19:36:14.118Z,36.32
2022-08-25T19:38:41.646Z,36.51
2022-08-25T19:41:09.441Z,36.25
2022-08-25T19:43:50.585Z,35.88
2022-08-25T19:46:25.160Z,36.23
2022-08-25T19:48:51.716Z,36.25
2022-08-25T19:51:19.273Z,35.92
2022-08-25T19:53:52.302Z,36.57
2022-08-25T19:56:21.541Z,36.32
2022-08-25T19:58:48.019Z,36.30
2022-08-25T20:01:16.584Z,36.48
2022-08-25T20:03:44.826Z,36.63
2022-08-25T20:06:11.346Z,36.64
2022-08-25T20:08:37.846Z,36.41
2022-08-25T20:11:04.528Z,36.68
2022-08-25T20:13:31.100Z,36.25
2022-08-25T20:15:58.801Z,36.43
2022-08-25T20:18:25.547Z,36.69
2022-08-25T20:20:52.560Z,36.16
2022-08-25T20:23:37.993Z,36.16
2022-08-25T20:26:05.190Z,36.79
2022-08-25T20:28:31.625Z,36.33
2022-08-25T20:30:58.217Z,36.82
2022-08-25T20:33:24.769Z,36.82
2022-08-25T20:35:53.065Z,36.55
2022-08-25T20:38:19.887Z,36.37
2022-08-25T20:40:46.397Z,36.32
2022-08-25T20:43:15.323Z,36.71
2022-08-25T20:45:42.108Z,37.01
2022-08-25T20:48:09.571Z,36.77
2022-08-25T20:50:38.567Z,37.00
2022-08-25T20:53:10.246Z,36.43
2022-08-25T20:55:43.843Z,36.84
2022-08-25T20:58:12.447Z,36.53
2022-08-25T21:00:45.907Z,36.85
2022-08-25T21:03:12.484Z,36.55
2022-08-25T21:05:40.687Z,36.96
2022-08-25T21:08:08.365Z,36.91
2022-08-25T21:10:35.324Z,37.04
2022-08-25T21:13:02.050Z,36.96
2022-08-25T21:15:28.711Z,36.99
2022-08-25T21:17:55.775Z,37.03
2022-08-25T21:20:24.091Z,37.14
2022-08-25T21:22:51.608Z,37.08
2022-08-25T21:25:21.814Z,37.00
2022-08-25T21:27:49.277Z,36.82
2022-08-25T21:30:16.259Z,36.68
2022-08-25T21:32:52.903Z,36.79
2022-08-25T21:35:21.564Z,36.61
2022-08-25T21:37:53.393Z,36.64
2022-08-25T21:40:22.587Z,36.84
2022-08-25T21:42:49.867Z,36.87
2022-08-25T21:45:16.479Z,37.12
2022-08-25T21:47:47.599Z,36.82
2022-08-25T21:50:14.187Z,37.15
2022-08-25T21:52:41.232Z,37.10
2022-08-25T21:55:15.669Z,37.13
2022-08-25T21:57:43.182Z,37.07
2022-08-25T22:00:11.588Z,36.65
2022-08-25T22:02:38.494Z,37.08
2022-08-25T22:05:09.359Z,37.04
2022-08-25T22:07:40.395Z,37.22
2022-08-25T22:10:09.489Z,37.06
2022-08-25T22:12:43.547Z,36.66
2022-08-25T22:15:13.641Z,37.06
2022-08-25T22:17:40.631Z,37.06
2022-08-25T22:20:08.374Z,36.79
2022-08-25T22:22:36.078Z,36.79
2022-08-25T22:25:03.003Z,36.90
2022-08-25T22:27:30.324Z,36.77
2022-08-25T22:29:58.087Z,36.87
2022-08-25T22:32:24.634Z,36.74
2022-08-25T22:34:51.166Z,36.67
2022-08-25T22:37:18.085Z,37.15
2022-08-25T22:39:45.577Z,36.94
2022-08-25T22:42:12.544Z,36.97
2022-08-25T22:44:40.014Z,36.68
2022-08-25T22:47:07.016Z,36.74
2022-08-25T22:49:35.379Z,36.89
2022-08-25T22:52:02.515Z,36.83
2022-08-25T22:54:29.893Z,37.09
2022-08-25T22:56:56.583Z,37.35
2022-08-25T22:59:23.080Z,37.32
2022-08-25T23:01:52.311Z,37.29
2022-08-25T23:04:19.237Z,37.03
2022-08-25T23:06:46.195Z,36.74
2022-08-25T23:09:13.896Z,37.13
2022-08-25T23:11:40.703Z,37.33
2022-08-25T23:14:10.893Z,37.17
2022-08-25T23:16:42.155Z,37.05
2022-08-25T23:19:13.649Z,37.40
2022-08-25T23:22:00.862Z,36.92
2022-08-25T23:24:30.074Z,36.91
2022-08-25T23:26:58.956Z,36.84
2022-08-25T23:29:27.554Z,37.01
2022-08-25T23:31:54.100Z,37.49
2022-08-25T23:34:21.540Z,37.42
2022-08-25T23:36:48.685Z,37.21
2022-08-25T23:39:15.122Z,37.30
2022-08-25T23:41:41.822Z,36.97
2022-08-25T23:44:11.542Z,36.93
2022-08-25T23:46:38.678Z,36.96
2022-08-25T23:49:08.067Z,36.96
2022-08-25T23:51:37.138Z,37.08
2022-08-25T23:54:10.859Z,37.25
2022-08-25T23:56:44.428Z,37.57
2022-08-25T23:59:17.822Z,37.05
